Time;durP1;ratioP1;P1;durP2;ratioP2;P2;SDS_P1;SDS_P2;PMS_P1;PMS_P2;Temp;Humidity;BMP_temperature;BMP_pressure;BME280_temperature;BME280_humidity;BME280_pressure;Samples;Min_cycle;Max_cycle;Signal;HPM_P1;HPM_P2
2024/02/18 00:00:47;;;;;;;10.20;7.80;;;12.60;99.90;;;;;;5021443;28;20630;-75
2024/02/18 00:03:13;;;;;;;11.25;6.80;;;12.60;99.90;;;;;;5018623;28;20217;-75
2024/02/18 00:05:39;;;;;;;12.13;6.60;;;12.60;99.90;;;;;;5020487;28;20178;-75
2024/02/18 00:08:05;;;;;;;8.13;5.70;;;12.60;99.90;;;;;;5022009;28;20205;-74
2024/02/18 00:10:30;;;;;;;8.77;6.73;;;12.60;99.90;;;;;;5018141;28;20276;-75
2024/02/18 00:12:56;;;;;;;8.50;6.07;;;12.60;99.90;;;;;;5020359;28;20597;-75
2024/02/18 00:15:22;;;;;;;7.00;6.30;;;12.60;99.90;;;;;;5020596;28;20189;-75
2024/02/18 00:17:48;;;;;;;8.93;6.50;;;12.50;99.90;;;;;;5016950;28;20188;-75
2024/02/18 00:20:15;;;;;;;11.80;7.93;;;12.50;99.90;;;;;;5017700;28;20213;-76
2024/02/18 00:22:41;;;;;;;8.40;5.78;;;12.50;99.90;;;;;;5054239;28;20236;-76
2024/02/18 00:25:07;;;;;;;9.40;6.32;;;12.50;99.90;;;;;;5020380;28;20170;-76
2024/02/18 00:27:34;;;;;;;14.77;9.48;;;12.50;99.90;;;;;;5021371;28;20185;-76
2024/02/18 00:30:00;;;;;;;9.25;7.22;;;12.40;99.90;;;;;;5024671;28;20269;-76
2024/02/18 00:32:26;;;;;;;9.43;6.73;;;12.40;99.90;;;;;;5023262;28;20180;-76
2024/02/18 00:34:52;;;;;;;11.70;6.47;;;12.40;99.90;;;;;;5024275;28;20592;-76
2024/02/18 00:37:18;;;;;;;12.67;7.60;;;12.40;99.90;;;;;;5024057;28;20189;-75
2024/02/18 00:39:44;;;;;;;9.07;7.40;;;12.40;99.90;;;;;;5056794;28;20194;-75
2024/02/18 00:42:10;;;;;;;11.55;7.20;;;12.40;99.90;;;;;;5023199;28;20578;-76
2024/02/18 00:44:36;;;;;;;10.20;7.20;;;12.40;99.90;;;;;;5024037;28;20237;-76
2024/02/18 00:47:03;;;;;;;9.00;6.60;;;12.40;99.90;;;;;;5020451;28;20631;-76
2024/02/18 00:49:29;;;;;;;12.63;7.32;;;12.50;99.90;;;;;;5022787;28;20205;-76
2024/02/18 00:51:55;;;;;;;9.40;6.18;;;12.50;99.90;;;;;;5022761;28;20179;-75
2024/02/18 00:54:21;;;;;;;7.87;5.97;;;12.50;99.90;;;;;;5005016;28;20254;-75
2024/02/18 00:56:47;;;;;;;10.17;6.73;;;12.50;99.90;;;;;;5021329;28;20620;-75
2024/02/18 00:59:16;;;;;;;9.30;7.03;;;12.60;99.90;;;;;;5021910;28;20276;-75
2024/02/18 01:01:43;;;;;;;13.53;6.90;;;12.60;99.90;;;;;;5023565;28;20173;-75
2024/02/18 01:04:10;;;;;;;6.50;5.37;;;12.60;99.90;;;;;;5023479;28;20631;-76
2024/02/18 01:06:36;;;;;;;8.05;6.30;;;12.70;99.90;;;;;;5020742;28;20580;-75
2024/02/18 01:09:02;;;;;;;14.30;7.75;;;12.70;99.90;;;;;;5022240;28;20198;-76
2024/02/18 01:11:30;;;;;;;7.83;6.10;;;12.70;99.90;;;;;;5022194;28;20640;-75
2024/02/18 01:13:55;;;;;;;9.52;6.80;;;12.70;99.90;;;;;;5022826;28;20207;-76
2024/02/18 01:16:21;;;;;;;10.60;7.53;;;12.70;99.90;;;;;;5021797;28;20166;-75
2024/02/18 01:18:49;;;;;;;9.10;6.90;;;12.70;99.90;;;;;;5022411;28;20197;-75
2024/02/18 01:21:16;;;;;;;9.90;6.77;;;12.70;99.90;;;;;;5023725;28;20588;-75
2024/02/18 01:23:42;;;;;;;9.37;6.23;;;12.60;99.90;;;;;;5024497;28;20635;-75
2024/02/18 01:26:08;;;;;;;9.50;6.77;;;12.60;99.90;;;;;;5024474;28;21083;-75
2024/02/18 01:28:34;;;;;;;9.90;6.30;;;12.60;99.90;;;;;;5019821;28;20623;-75
2024/02/18 01:31:03;;;;;;;9.17;5.97;;;12.60;99.90;;;;;;5055871;28;20732;-76
2024/02/18 01:33:29;;;;;;;7.30;6.60;;;12.60;99.90;;;;;;5023520;28;21051;-75
2024/02/18 01:35:55;;;;;;;8.57;5.70;;;12.60;99.90;;;;;;5020505;28;20193;-75
2024/02/18 01:38:21;;;;;;;7.60;6.13;;;12.60;99.90;;;;;;5022051;28;20585;-74
2024/02/18 01:40:47;;;;;;;6.53;5.13;;;12.60;99.90;;;;;;5022838;28;20585;-75
2024/02/18 01:43:15;;;;;;;8.67;5.90;;;12.60;99.90;;;;;;5020829;28;20210;-74
2024/02/18 01:45:40;;;;;;;7.10;5.30;;;12.60;99.90;;;;;;5025523;28;20619;-76
2024/02/18 01:48:07;;;;;;;8.93;6.60;;;12.60;99.90;;;;;;5022815;28;20661;-74
2024/02/18 01:50:33;;;;;;;8.75;5.40;;;12.60;99.90;;;;;;5034651;28;20206;-74
2024/02/18 01:52:59;;;;;;;6.45;4.70;;;12.60;99.90;;;;;;5051082;28;20700;-74
2024/02/18 01:55:25;;;;;;;5.25;4.28;;;12.70;99.90;;;;;;5004166;28;20269;-74
2024/02/18 01:57:51;;;;;;;9.27;5.00;;;12.70;99.90;;;;;;5002727;28;20240;-76
2024/02/18 02:00:17;;;;;;;5.85;4.32;;;12.60;99.90;;;;;;5027086;28;20708;-75
2024/02/18 02:02:47;;;;;;;6.03;4.20;;;12.60;99.90;;;;;;5055953;28;20190;-75
2024/02/18 02:05:17;;;;;;;5.87;4.50;;;12.60;99.90;;;;;;5018930;28;20624;-75
2024/02/18 02:07:46;;;;;;;5.77;3.27;;;12.60;99.90;;;;;;5022744;28;20584;-74
2024/02/18 02:10:12;;;;;;;8.27;4.40;;;12.70;99.90;;;;;;5022011;28;20979;-74
2024/02/18 02:12:40;;;;;;;7.10;4.37;;;12.60;99.90;;;;;;5021200;28;20723;-75
2024/02/18 02:15:08;;;;;;;6.03;4.40;;;12.70;99.90;;;;;;5021735;28;20663;-75
2024/02/18 02:17:34;;;;;;;10.52;5.55;;;12.70;99.90;;;;;;5023135;28;20584;-74
2024/02/18 02:20:00;;;;;;;6.20;3.70;;;12.60;99.90;;;;;;5017013;28;20301;-74
2024/02/18 02:22:26;;;;;;;5.40;4.50;;;12.60;99.90;;;;;;5019837;28;20182;-75
2024/02/18 02:24:52;;;;;;;9.18;3.85;;;12.60;99.90;;;;;;5020197;28;20641;-74
2024/02/18 02:27:29;;;;;;;10.73;5.10;;;12.50;99.90;;;;;;5019403;28;20165;-75
2024/02/18 02:29:55;;;;;;;7.95;3.90;;;12.40;99.90;;;;;;5010170;28;20555;-75
2024/02/18 02:32:21;;;;;;;4.57;3.80;;;12.40;99.90;;;;;;5021404;28;20189;-75
2024/02/18 02:34:47;;;;;;;6.37;4.47;;;12.30;99.90;;;;;;5023197;28;20569;-75
2024/02/18 02:37:12;;;;;;;5.00;3.97;;;12.30;99.90;;;;;;5020285;28;20188;-75
2024/02/18 02:39:38;;;;;;;5.73;4.07;;;12.30;99.90;;;;;;5019645;28;20190;-74
2024/02/18 02:42:05;;;;;;;4.47;3.50;;;12.20;99.90;;;;;;5019331;28;21285;-75
2024/02/18 02:44:30;;;;;;;7.20;3.65;;;12.20;99.90;;;;;;5019808;28;20228;-75
2024/02/18 02:46:56;;;;;;;6.50;4.40;;;12.10;99.90;;;;;;5050765;28;20290;-74
2024/02/18 02:49:22;;;;;;;7.00;4.77;;;12.00;99.90;;;;;;5022838;28;20193;-74
2024/02/18 02:51:47;;;;;;;7.77;5.07;;;12.00;99.90;;;;;;5024114;28;20704;-74
2024/02/18 02:54:13;;;;;;;7.33;5.30;;;12.00;99.90;;;;;;5022612;28;20189;-74
2024/02/18 02:56:39;;;;;;;8.03;4.27;;;11.90;99.90;;;;;;5024735;28;20201;-76
2024/02/18 02:59:04;;;;;;;7.60;4.77;;;11.90;99.90;;;;;;5024524;28;20292;-74
2024/02/18 03:01:30;;;;;;;7.80;4.40;;;11.90;99.90;;;;;;5024385;28;20232;-75
2024/02/18 03:03:56;;;;;;;5.73;4.50;;;11.80;99.90;;;;;;5023698;28;20197;-75
2024/02/18 03:06:21;;;;;;;7.20;6.03;;;11.80;99.90;;;;;;5024623;28;20205;-74
2024/02/18 03:08:47;;;;;;;8.00;5.03;;;11.80;99.90;;;;;;5024305;28;20543;-75
2024/02/18 03:11:15;;;;;;;5.37;4.50;;;11.70;99.90;;;;;;5010205;28;20188;-74
2024/02/18 03:13:41;;;;;;;9.25;4.80;;;11.70;99.90;;;;;;5051114;28;20215;-75
2024/02/18 03:16:07;;;;;;;7.47;5.27;;;11.60;99.90;;;;;;5024150;28;20166;-74
2024/02/18 03:18:32;;;;;;;8.23;5.17;;;11.60;99.90;;;;;;5022417;28;20556;-74
2024/02/18 03:20:58;;;;;;;7.60;4.47;;;11.60;99.90;;;;;;5004924;28;20596;-74
2024/02/18 03:23:26;;;;;;;5.50;4.47;;;11.60;99.90;;;;;;5019811;28;20209;-75
2024/02/18 03:25:54;;;;;;;5.10;4.60;;;11.60;99.90;;;;;;5031723;28;20178;-74
2024/02/18 03:28:20;;;;;;;9.13;4.30;;;11.60;99.90;;;;;;5021958;28;20542;-75
2024/02/18 03:30:50;;;;;;;9.27;4.95;;;11.60;99.90;;;;;;5002083;28;20174;-75
2024/02/18 03:33:17;;;;;;;6.57;4.63;;;11.60;99.90;;;;;;5020661;28;20177;-75
2024/02/18 03:35:44;;;;;;;7.10;4.30;;;11.60;99.90;;;;;;5019915;28;20636;-74
2024/02/18 03:38:09;;;;;;;5.68;4.40;;;11.60;99.90;;;;;;5018977;28;20188;-74
2024/02/18 03:40:35;;;;;;;5.50;3.73;;;11.60;99.90;;;;;;5049277;28;20699;-75
2024/02/18 03:43:02;;;;;;;6.88;3.75;;;11.60;99.90;;;;;;5020657;28;21022;-75
2024/02/18 03:45:28;;;;;;;5.20;4.63;;;11.60;99.90;;;;;;5000616;28;20174;-75
2024/02/18 03:47:57;;;;;;;5.70;3.80;;;11.60;99.90;;;;;;5018895;28;20200;-79
2024/02/18 03:50:23;;;;;;;4.57;2.95;;;11.60;99.90;;;;;;5020142;28;20355;-78
2024/02/18 03:52:49;;;;;;;5.50;4.07;;;11.60;99.90;;;;;;5001941;28;20273;-78
2024/02/18 03:55:15;;;;;;;8.10;3.57;;;11.50;99.90;;;;;;5018098;28;20174;-78
2024/02/18 03:57:41;;;;;;;6.00;3.50;;;11.50;99.90;;;;;;5019577;28;20594;-78
2024/02/18 04:00:12;;;;;;;6.90;3.85;;;11.50;99.90;;;;;;5020845;28;20209;-78
2024/02/18 04:02:39;;;;;;;6.07;4.00;;;11.50;99.90;;;;;;5024017;28;20182;-78
2024/02/18 04:05:11;;;;;;;5.40;3.20;;;11.50;99.90;;;;;;5012746;28;20267;-78
2024/02/18 04:07:37;;;;;;;8.05;3.30;;;11.50;99.90;;;;;;5028798;28;20190;-78
2024/02/18 04:10:05;;;;;;;7.35;4.25;;;11.50;99.90;;;;;;5022490;28;20248;-78
2024/02/18 04:12:31;;;;;;;5.80;3.28;;;11.50;99.90;;;;;;5011776;28;20552;-78
2024/02/18 04:14:57;;;;;;;4.18;3.08;;;11.50;99.90;;;;;;5005549;28;20170;-78
2024/02/18 04:17:24;;;;;;;5.03;3.07;;;11.60;99.90;;;;;;5054215;28;20240;-79
2024/02/18 04:19:50;;;;;;;4.90;3.35;;;11.50;99.90;;;;;;5020912;28;20197;-79
2024/02/18 04:22:16;;;;;;;7.03;3.60;;;11.50;99.90;;;;;;5022317;28;20178;-79
2024/02/18 04:24:42;;;;;;;8.10;4.07;;;11.50;99.90;;;;;;5026396;28;20606;-79
2024/02/18 04:27:11;;;;;;;5.43;3.90;;;11.50;99.90;;;;;;5024963;28;20178;-78
2024/02/18 04:29:37;;;;;;;5.82;3.85;;;11.50;99.90;;;;;;5038019;28;20247;-79
2024/02/18 04:32:04;;;;;;;6.50;2.85;;;11.50;99.90;;;;;;5021608;28;20213;-78
2024/02/18 04:34:30;;;;;;;7.32;3.47;;;11.40;99.90;;;;;;5051614;28;20272;-74
2024/02/18 04:36:56;;;;;;;10.10;4.07;;;11.40;99.90;;;;;;5048643;28;20723;-74
2024/02/18 04:39:21;;;;;;;7.83;4.03;;;11.40;99.90;;;;;;5023601;28;20205;-75
2024/02/18 04:41:47;;;;;;;5.53;3.00;;;11.30;99.90;;;;;;5023025;28;20650;-75
2024/02/18 04:44:14;;;;;;;3.53;2.43;;;11.30;99.90;;;;;;5023727;28;20300;-75
2024/02/18 04:46:40;;;;;;;4.72;2.75;;;11.30;99.90;;;;;;5022510;28;20209;-75
2024/02/18 04:49:06;;;;;;;4.30;3.10;;;11.30;99.90;;;;;;5022560;28;20218;-75
2024/02/18 04:51:32;;;;;;;5.40;2.80;;;11.20;99.90;;;;;;5037340;28;20182;-75
2024/02/18 04:53:57;;;;;;;4.97;3.03;;;11.20;99.90;;;;;;5021478;28;20652;-75
2024/02/18 04:56:23;;;;;;;8.10;2.63;;;11.20;99.90;;;;;;5025844;28;20189;-75
2024/02/18 04:58:49;;;;;;;5.40;3.93;;;11.20;99.90;;;;;;5023828;28;20264;-75
2024/02/18 05:01:14;;;;;;;6.50;3.70;;;11.20;99.90;;;;;;5022332;28;20186;-74
2024/02/18 05:03:41;;;;;;;4.23;2.47;;;11.20;99.90;;;;;;5024770;28;20204;-75
2024/02/18 05:06:10;;;;;;;4.22;2.38;;;11.10;99.90;;;;;;5022185;28;20183;-74
2024/02/18 05:08:37;;;;;;;8.48;3.50;;;11.10;99.90;;;;;;5023627;28;20281;-75
2024/02/18 05:11:03;;;;;;;3.20;2.53;;;11.10;99.90;;;;;;5021529;28;20178;-75
2024/02/18 05:13:29;;;;;;;4.20;2.27;;;11.00;99.90;;;;;;5024332;28;20194;-75
2024/02/18 05:15:56;;;;;;;4.80;2.80;;;11.10;99.90;;;;;;5023592;28;20589;-75
2024/02/18 05:18:22;;;;;;;4.30;1.98;;;11.10;99.90;;;;;;5004300;28;20190;-75
2024/02/18 05:20:48;;;;;;;7.18;2.67;;;11.00;99.90;;;;;;5023893;28;20220;-75
2024/02/18 05:23:14;;;;;;;3.20;2.80;;;11.10;99.90;;;;;;5025589;28;20256;-76
2024/02/18 05:25:40;;;;;;;3.73;2.57;;;11.00;99.90;;;;;;5022011;28;20178;-76
2024/02/18 05:28:07;;;;;;;2.97;2.22;;;11.00;99.90;;;;;;5021415;28;20171;-75
2024/02/18 05:30:33;;;;;;;6.82;2.70;;;11.00;99.90;;;;;;5020902;28;20205;-76
2024/02/18 05:32:59;;;;;;;5.45;2.95;;;11.00;99.90;;;;;;5052513;28;20696;-76
2024/02/18 05:35:25;;;;;;;5.55;2.40;;;11.00;99.90;;;;;;5022534;28;20236;-75
2024/02/18 05:37:51;;;;;;;4.40;2.40;;;11.00;99.90;;;;;;5022391;28;20269;-76
2024/02/18 05:40:17;;;;;;;4.88;1.88;;;11.10;99.90;;;;;;5019781;28;20623;-76
2024/02/18 05:42:43;;;;;;;4.53;2.30;;;11.10;99.90;;;;;;5052917;28;20205;-76
2024/02/18 05:45:10;;;;;;;5.03;2.53;;;11.10;99.90;;;;;;5035291;28;20181;-76
2024/02/18 05:47:36;;;;;;;3.47;1.70;;;11.20;99.90;;;;;;5020473;28;20174;-76
2024/02/18 05:50:03;;;;;;;4.82;3.10;;;11.20;99.90;;;;;;5034434;28;20278;-76
2024/02/18 05:52:28;;;;;;;5.68;2.15;;;11.20;99.90;;;;;;5019824;28;20247;-76
2024/02/18 05:54:54;;;;;;;4.10;2.63;;;11.20;99.90;;;;;;5018192;28;20178;-75
2024/02/18 05:57:20;;;;;;;5.50;2.40;;;11.20;99.90;;;;;;5003074;28;20584;-76
2024/02/18 05:59:46;;;;;;;7.10;2.70;;;11.20;99.90;;;;;;5022795;28;20197;-76
2024/02/18 06:02:11;;;;;;;6.80;2.20;;;11.20;99.90;;;;;;5021793;28;20185;-76
2024/02/18 06:04:37;;;;;;;4.80;2.25;;;11.20;99.90;;;;;;5056595;28;20562;-76
2024/02/18 06:07:03;;;;;;;6.37;2.13;;;11.20;99.90;;;;;;5023093;28;20170;-76
2024/02/18 06:09:29;;;;;;;3.50;1.77;;;11.20;99.90;;;;;;5034215;28;20308;-76
2024/02/18 06:11:55;;;;;;;2.90;1.87;;;11.20;99.90;;;;;;5022755;28;20256;-76
2024/02/18 06:14:21;;;;;;;3.87;1.80;;;11.30;99.90;;;;;;5022880;28;20178;-76
2024/02/18 06:16:47;;;;;;;4.70;2.00;;;11.30;99.90;;;;;;5023883;28;20181;-76
2024/02/18 06:19:12;;;;;;;4.00;2.00;;;11.30;99.90;;;;;;5020938;28;20612;-75
2024/02/18 06:21:38;;;;;;;4.70;1.90;;;11.40;99.90;;;;;;5024239;28;20637;-76
2024/02/18 06:24:04;;;;;;;4.40;2.30;;;11.30;99.90;;;;;;5020714;28;20617;-75
2024/02/18 06:26:30;;;;;;;7.20;3.37;;;11.30;99.90;;;;;;5005955;28;20178;-75
2024/02/18 06:28:56;;;;;;;3.90;2.40;;;11.30;99.90;;;;;;5042908;28;20624;-75
2024/02/18 06:31:22;;;;;;;3.00;1.87;;;11.30;99.90;;;;;;5027178;28;20213;-75
2024/02/18 06:33:48;;;;;;;7.40;2.55;;;11.30;99.90;;;;;;5020560;28;20185;-75
2024/02/18 06:36:14;;;;;;;3.40;2.13;;;11.30;99.90;;;;;;5020950;28;20250;-75
2024/02/18 06:38:44;;;;;;;5.10;2.40;;;11.20;99.90;;;;;;5051499;28;20206;-75
2024/02/18 06:41:10;;;;;;;4.53;2.30;;;11.20;99.90;;;;;;5019886;28;20192;-75
2024/02/18 06:43:36;;;;;;;3.90;2.35;;;11.20;99.90;;;;;;5018736;28;20599;-75
2024/02/18 06:46:03;;;;;;;2.57;2.17;;;11.20;99.90;;;;;;5029196;28;20228;-75
2024/02/18 06:48:30;;;;;;;7.57;2.10;;;11.20;99.90;;;;;;5050778;28;20193;-75
2024/02/18 06:50:56;;;;;;;3.78;1.90;;;11.20;99.90;;;;;;5003097;28;20174;-75
2024/02/18 06:53:22;;;;;;;4.05;2.53;;;11.20;99.90;;;;;;5022666;28;20201;-75
2024/02/18 06:55:48;;;;;;;6.03;2.53;;;11.20;99.90;;;;;;5019193;28;20208;-75
2024/02/18 06:58:16;;;;;;;3.93;2.47;;;11.10;99.90;;;;;;5019717;28;20236;-76
2024/02/18 07:00:42;;;;;;;7.13;2.83;;;11.20;99.90;;;;;;5018819;28;20794;-75
2024/02/18 07:03:07;;;;;;;6.00;3.03;;;11.20;99.90;;;;;;5020268;28;20190;-76
2024/02/18 07:05:33;;;;;;;7.07;2.70;;;11.20;99.90;;;;;;5017610;28;20178;-74
2024/02/18 07:07:59;;;;;;;4.90;2.50;;;11.20;99.90;;;;;;5045294;28;20580;-74
2024/02/18 07:10:25;;;;;;;4.50;2.83;;;11.20;99.90;;;;;;5019297;28;20198;-75
2024/02/18 07:12:51;;;;;;;5.72;3.20;;;11.20;99.90;;;;;;5020660;28;20585;-74
2024/02/18 07:15:17;;;;;;;4.80;2.30;;;11.20;99.90;;;;;;5020795;28;20221;-74
2024/02/18 07:17:43;;;;;;;4.70;3.17;;;11.20;99.90;;;;;;5021194;28;21123;-75
2024/02/18 07:20:09;;;;;;;6.50;4.13;;;11.20;99.90;;;;;;5021305;28;20613;-75
2024/02/18 07:22:35;;;;;;;4.05;2.78;;;11.20;99.90;;;;;;5021029;28;20185;-74
2024/02/18 07:25:02;;;;;;;9.87;4.00;;;11.30;99.90;;;;;;5057910;28;20284;-75
2024/02/18 07:27:28;;;;;;;4.10;3.00;;;11.20;99.90;;;;;;5017930;28;20923;-75
2024/02/18 07:29:54;;;;;;;4.73;2.47;;;11.20;99.90;;;;;;5019707;28;20194;-75
2024/02/18 07:32:19;;;;;;;10.27;3.20;;;11.20;99.90;;;;;;5021527;28;20308;-75
2024/02/18 07:34:45;;;;;;;4.53;3.83;;;11.20;99.90;;;;;;5019323;28;20576;-75
2024/02/18 07:37:11;;;;;;;6.87;3.13;;;11.20;99.90;;;;;;5022299;28;20276;-75
2024/02/18 07:39:37;;;;;;;4.07;2.90;;;11.10;99.90;;;;;;5020066;28;20202;-75
2024/02/18 07:42:03;;;;;;;8.93;3.20;;;11.10;99.90;;;;;;5019284;28;20223;-76
2024/02/18 07:44:30;;;;;;;4.18;3.15;;;11.10;99.90;;;;;;5053060;28;20299;-76
2024/02/18 07:46:57;;;;;;;3.77;2.60;;;11.10;99.90;;;;;;5020518;28;20275;-76
2024/02/18 07:49:24;;;;;;;5.35;2.70;;;11.00;99.90;;;;;;5018059;28;20198;-76
2024/02/18 07:51:50;;;;;;;4.80;2.50;;;11.00;99.90;;;;;;5020005;28;20652;-75
2024/02/18 07:54:17;;;;;;;5.90;2.45;;;11.00;99.90;;;;;;5018982;28;20169;-75
2024/02/18 07:56:47;;;;;;;7.05;3.53;;;11.00;99.90;;;;;;5021671;28;20217;-75
2024/02/18 07:59:16;;;;;;;5.90;3.63;;;11.00;99.90;;;;;;5051221;28;20209;-76
2024/02/18 08:01:42;;;;;;;3.80;2.85;;;10.90;99.90;;;;;;5032578;28;20176;-76
2024/02/18 08:04:08;;;;;;;4.43;2.88;;;10.90;99.90;;;;;;5020811;28;20202;-76
2024/02/18 08:06:34;;;;;;;8.13;3.00;;;11.00;99.90;;;;;;5002391;28;20236;-75
2024/02/18 08:09:00;;;;;;;3.87;3.37;;;10.90;99.90;;;;;;5018879;28;20220;-76
2024/02/18 08:11:26;;;;;;;6.43;2.45;;;10.90;99.90;;;;;;5018272;28;20580;-75
2024/02/18 08:13:52;;;;;;;4.20;3.07;;;10.90;99.90;;;;;;5021454;28;20191;-76
2024/02/18 08:16:19;;;;;;;4.30;2.57;;;10.90;99.90;;;;;;5022287;28;20186;-76
2024/02/18 08:18:45;;;;;;;6.68;3.13;;;10.90;99.90;;;;;;5018690;28;20631;-76
2024/02/18 08:21:11;;;;;;;4.35;2.67;;;10.90;99.90;;;;;;5021070;28;20269;-76
2024/02/18 08:23:37;;;;;;;5.03;2.90;;;10.90;99.90;;;;;;5018799;28;20324;-76
2024/02/18 08:26:03;;;;;;;3.97;2.80;;;10.90;99.90;;;;;;5022264;28;20174;-76
2024/02/18 08:28:29;;;;;;;5.82;3.30;;;10.90;99.90;;;;;;5023170;28;20182;-76
2024/02/18 08:30:56;;;;;;;6.23;2.90;;;10.90;99.90;;;;;;5005263;28;20208;-76
2024/02/18 08:33:22;;;;;;;4.45;3.03;;;10.90;99.90;;;;;;5021701;28;20597;-76
2024/02/18 08:35:49;;;;;;;4.57;3.17;;;10.90;99.90;;;;;;5046095;28;20221;-75
2024/02/18 08:38:15;;;;;;;19.00;3.38;;;10.90;99.90;;;;;;5022787;28;20265;-75
2024/02/18 08:40:41;;;;;;;6.63;3.47;;;10.90;99.90;;;;;;5015681;28;20272;-74
2024/02/18 08:43:07;;;;;;;3.37;2.50;;;10.90;99.90;;;;;;5018414;28;20681;-74
2024/02/18 08:45:33;;;;;;;6.55;3.22;;;10.90;99.90;;;;;;5030067;28;20186;-75
2024/02/18 08:47:59;;;;;;;6.90;2.20;;;10.90;99.90;;;;;;5018930;28;20173;-75
2024/02/18 08:50:26;;;;;;;5.72;2.28;;;10.90;99.90;;;;;;5033579;28;20284;-75
2024/02/18 08:52:51;;;;;;;3.78;2.47;;;10.90;99.90;;;;;;5034925;28;20272;-75
2024/02/18 08:55:17;;;;;;;6.83;2.90;;;10.90;99.90;;;;;;5056003;28;20730;-75
2024/02/18 08:57:43;;;;;;;3.20;2.73;;;10.90;99.90;;;;;;5033930;28;20583;-75
2024/02/18 09:00:10;;;;;;;3.03;2.00;;;10.90;99.90;;;;;;5038489;28;21334;-75
2024/02/18 09:02:36;;;;;;;4.65;2.88;;;10.90;99.90;;;;;;5035583;28;20636;-75
2024/02/18 09:05:02;;;;;;;3.90;2.47;;;10.90;99.90;;;;;;5024229;28;20220;-74
2024/02/18 09:07:30;;;;;;;5.40;2.60;;;11.00;99.90;;;;;;5032015;28;20177;-75
2024/02/18 09:09:56;;;;;;;3.70;2.58;;;10.90;99.90;;;;;;5024294;28;20190;-75
2024/02/18 09:12:22;;;;;;;4.50;2.60;;;11.00;99.90;;;;;;5032412;28;20261;-75
2024/02/18 09:14:47;;;;;;;5.10;2.90;;;11.00;99.90;;;;;;5043137;28;20594;-75
2024/02/18 09:17:13;;;;;;;4.00;2.20;;;11.00;99.90;;;;;;5029216;28;20618;-74
2024/02/18 09:19:39;;;;;;;3.67;2.17;;;11.00;99.90;;;;;;5028505;28;20206;-75
2024/02/18 09:22:05;;;;;;;4.07;2.53;;;11.10;99.90;;;;;;5031714;28;20173;-75
2024/02/18 09:24:31;;;;;;;4.45;2.45;;;11.10;99.90;;;;;;5047034;28;20214;-75
2024/02/18 09:26:57;;;;;;;4.27;2.23;;;11.20;99.90;;;;;;5034162;28;20169;-75
2024/02/18 09:29:23;;;;;;;6.67;2.80;;;11.20;99.90;;;;;;5032354;28;21251;-75
2024/02/18 09:31:49;;;;;;;4.70;3.03;;;11.20;99.90;;;;;;5042023;28;20180;-75
2024/02/18 09:34:16;;;;;;;8.57;2.40;;;11.30;99.90;;;;;;5033350;28;20200;-75
2024/02/18 09:36:42;;;;;;;5.30;2.83;;;11.20;99.90;;;;;;5035524;28;20185;-76
2024/02/18 09:39:08;;;;;;;8.00;3.03;;;11.20;99.90;;;;;;5033409;28;20339;-75
2024/02/18 09:41:44;;;;;;;4.00;2.70;;;11.20;99.90;;;;;;5030927;28;20227;-76
2024/02/18 09:44:12;;;;;;;4.53;2.58;;;11.20;99.90;;;;;;5031223;28;20733;-76
2024/02/18 09:46:40;;;;;;;7.43;3.70;;;11.20;99.90;;;;;;5032497;28;20185;-76
2024/02/18 09:49:11;;;;;;;4.53;2.60;;;11.20;99.90;;;;;;5030007;28;20189;-76
2024/02/18 09:51:37;;;;;;;3.33;2.05;;;11.20;99.90;;;;;;5025172;28;20178;-76
2024/02/18 09:54:10;;;;;;;7.32;1.80;;;11.30;99.90;;;;;;5028466;28;20224;-76
2024/02/18 09:56:36;;;;;;;2.67;1.90;;;11.30;99.90;;;;;;5030508;28;20189;-77
2024/02/18 09:59:02;;;;;;;4.20;2.57;;;11.30;99.90;;;;;;5031013;28;20258;-75
2024/02/18 10:01:28;;;;;;;2.43;1.70;;;11.40;99.90;;;;;;5027897;28;20621;-75
2024/02/18 10:03:53;;;;;;;4.87;2.23;;;11.40;99.90;;;;;;5030550;28;20216;-77
2024/02/18 10:06:20;;;;;;;5.80;2.23;;;11.40;99.90;;;;;;5030691;28;20681;-75
2024/02/18 10:08:54;;;;;;;4.55;2.40;;;11.50;99.90;;;;;;5031215;28;20231;-76
2024/02/18 10:11:23;;;;;;;3.40;2.08;;;11.60;99.90;;;;;;5030514;28;20638;-76
2024/02/18 10:13:53;;;;;;;7.00;2.10;;;11.60;99.90;;;;;;5030796;28;20185;-75
2024/02/18 10:16:18;;;;;;;4.15;2.10;;;11.70;99.90;;;;;;5030921;28;20178;-76
2024/02/18 10:18:45;;;;;;;5.17;2.00;;;11.70;99.90;;;;;;5031465;28;21012;-76
2024/02/18 10:21:11;;;;;;;3.38;1.73;;;11.70;99.90;;;;;;5031882;28;20196;-75
2024/02/18 10:23:41;;;;;;;5.50;2.28;;;11.70;99.90;;;;;;5031850;28;20206;-75
2024/02/18 10:26:07;;;;;;;4.45;1.77;;;11.70;99.90;;;;;;5031960;28;20178;-76
2024/02/18 10:28:37;;;;;;;3.05;1.52;;;11.80;99.90;;;;;;5029857;28;20196;-75
2024/02/18 10:31:04;;;;;;;4.30;2.33;;;11.80;99.90;;;;;;5030633;28;20185;-75
2024/02/18 10:33:31;;;;;;;2.78;1.10;;;11.80;99.90;;;;;;5031962;28;20736;-75
2024/02/18 10:36:09;;;;;;;4.18;1.83;;;11.80;99.90;;;;;;5031968;28;20191;-74
2024/02/18 10:38:42;;;;;;;6.40;1.83;;;11.90;99.90;;;;;;5032790;28;20232;-74
2024/02/18 10:41:16;;;;;;;2.45;1.40;;;11.90;99.90;;;;;;5032815;28;20220;-74
2024/02/18 10:44:02;;;;;;;3.95;1.40;;;11.90;99.90;;;;;;5055346;28;20200;-75
2024/02/18 10:46:30;;;;;;;3.65;1.33;;;11.90;99.90;;;;;;5028192;28;20247;-76
2024/02/18 10:49:21;;;;;;;2.63;1.20;;;11.90;99.90;;;;;;5028946;28;20206;-73
2024/02/18 10:51:52;;;;;;;4.93;1.30;;;11.90;99.90;;;;;;5029170;28;20906;-73
2024/02/18 10:54:43;;;;;;;3.10;1.77;;;12.00;99.90;;;;;;5056247;28;20181;-73
2024/02/18 10:57:11;;;;;;;5.60;1.25;;;12.00;99.90;;;;;;5030843;28;20592;-74
2024/02/18 10:59:57;;;;;;;3.20;1.20;;;12.00;99.90;;;;;;5030403;28;20189;-73
2024/02/18 11:02:28;;;;;;;6.57;1.30;;;11.90;99.90;;;;;;5056005;28;20695;-72
2024/02/18 11:04:54;;;;;;;3.92;2.17;;;11.90;99.90;;;;;;5029567;28;20304;-73
2024/02/18 11:07:23;;;;;;;5.38;1.38;;;11.90;99.90;;;;;;5030452;28;20200;-72
2024/02/18 11:09:50;;;;;;;2.72;1.40;;;11.90;99.90;;;;;;5030032;28;20209;-72
2024/02/18 11:12:16;;;;;;;2.72;1.50;;;11.90;99.90;;;;;;5029550;28;20595;-72
2024/02/18 11:14:43;;;;;;;5.45;2.72;;;11.70;99.90;;;;;;5027903;28;20173;-71
2024/02/18 11:17:10;;;;;;;3.67;1.27;;;11.70;99.90;;;;;;5030440;28;20188;-72
2024/02/18 11:19:38;;;;;;;3.80;1.70;;;11.50;99.90;;;;;;5023432;28;20208;-72
2024/02/18 11:22:04;;;;;;;2.55;1.52;;;11.40;99.90;;;;;;5028624;28;20632;-72
2024/02/18 11:24:30;;;;;;;3.97;2.25;;;11.30;99.90;;;;;;5028910;28;20706;-72
2024/02/18 11:26:56;;;;;;;3.40;1.97;;;11.20;99.90;;;;;;5029424;28;20192;-73
2024/02/18 11:29:21;;;;;;;3.50;1.37;;;11.10;99.90;;;;;;5028485;28;20288;-73
2024/02/18 11:31:47;;;;;;;3.10;1.50;;;11.00;99.90;;;;;;5029807;28;20189;-73
2024/02/18 11:34:13;;;;;;;3.10;1.40;;;10.90;99.90;;;;;;5030235;28;20638;-72
2024/02/18 11:36:39;;;;;;;6.13;1.93;;;10.80;99.90;;;;;;5028908;28;20212;-73
2024/02/18 11:39:06;;;;;;;3.83;1.87;;;10.80;99.90;;;;;;5027286;28;20656;-73
2024/02/18 11:41:35;;;;;;;4.55;1.40;;;10.70;99.90;;;;;;5022096;28;20184;-73
2024/02/18 11:44:08;;;;;;;3.83;2.25;;;10.80;99.90;;;;;;5029607;28;20201;-73
2024/02/18 11:46:49;;;;;;;4.70;1.45;;;10.80;99.90;;;;;;5028342;28;20663;-72
2024/02/18 11:49:15;;;;;;;4.30;1.85;;;10.80;99.90;;;;;;5011609;28;20197;-72
2024/02/18 11:51:41;;;;;;;6.90;2.03;;;10.90;99.90;;;;;;5012089;28;20224;-73
2024/02/18 11:54:06;;;;;;;7.37;1.97;;;10.90;99.90;;;;;;5054916;28;20178;-74
2024/02/18 11:56:32;;;;;;;6.40;1.90;;;10.90;99.90;;;;;;5029970;28;20277;-72
2024/02/18 11:58:58;;;;;;;5.78;1.58;;;11.00;99.90;;;;;;5028098;28;20591;-73
2024/02/18 12:01:25;;;;;;;5.03;1.40;;;10.90;99.90;;;;;;5029872;28;20260;-72
2024/02/18 12:03:53;;;;;;;5.20;1.90;;;10.90;99.90;;;;;;5028327;28;20201;-73
2024/02/18 12:06:19;;;;;;;3.60;1.75;;;11.00;99.90;;;;;;5029207;28;20197;-73
2024/02/18 12:08:44;;;;;;;4.67;1.40;;;11.00;99.90;;;;;;5028801;28;20221;-73
2024/02/18 12:11:10;;;;;;;2.50;1.23;;;11.00;99.90;;;;;;5028479;28;20203;-73
2024/02/18 12:13:36;;;;;;;3.50;1.80;;;11.00;99.90;;;;;;5028986;28;20178;-73
2024/02/18 12:16:03;;;;;;;4.33;1.73;;;10.90;99.90;;;;;;5028942;28;20182;-74
2024/02/18 12:18:29;;;;;;;3.58;1.65;;;10.90;99.90;;;;;;5027915;28;20178;-73
2024/02/18 12:20:55;;;;;;;2.57;1.40;;;10.80;99.90;;;;;;5030242;28;20235;-73
2024/02/18 12:23:23;;;;;;;2.08;1.33;;;10.70;99.90;;;;;;5034054;28;20292;-73
2024/02/18 12:25:53;;;;;;;2.85;1.48;;;10.70;99.90;;;;;;5067086;28;20178;-73
2024/02/18 12:28:19;;;;;;;3.45;2.25;;;10.70;99.90;;;;;;5026201;28;20173;-72
2024/02/18 12:30:46;;;;;;;3.40;1.63;;;10.60;99.90;;;;;;5034738;28;20524;-73
2024/02/18 12:33:13;;;;;;;7.97;1.98;;;10.60;99.90;;;;;;5033574;28;20185;-73
2024/02/18 12:35:39;;;;;;;7.40;4.22;;;10.50;99.90;;;;;;5032582;28;20170;-73
2024/02/18 12:38:05;;;;;;;8.63;3.55;;;10.50;99.90;;;;;;5031547;28;20208;-73
2024/02/18 12:40:35;;;;;;;8.17;2.90;;;10.40;99.90;;;;;;5032014;28;20189;-75
2024/02/18 12:43:01;;;;;;;4.57;2.97;;;10.30;99.90;;;;;;5032015;28;20615;-72